createdAt,value
2023-02-06T00:01:07.388Z,6.30
2023-02-06T00:03:40.286Z,6.30
2023-02-06T00:06:13.602Z,6.30
2023-02-06T00:08:46.895Z,6.30
2023-02-06T00:11:21.433Z,6.40
2023-02-06T00:13:54.469Z,6.50
2023-02-06T00:16:29.172Z,6.50
2023-02-06T00:19:03.678Z,6.50
2023-02-06T00:21:36.359Z,6.50
2023-02-06T00:24:11.403Z,6.50
2023-02-06T00:26:45.272Z,6.50
2023-02-06T00:29:18.238Z,6.50
2023-02-06T00:31:53.086Z,6.50
2023-02-06T00:34:25.802Z,6.50
2023-02-06T00:36:58.985Z,6.50
2023-02-06T00:39:32.750Z,6.40
2023-02-06T00:42:08.168Z,6.40
2023-02-06T00:44:40.883Z,6.40
2023-02-06T00:47:14.719Z,6.36
2023-02-06T00:49:47.865Z,6.30
2023-02-06T00:52:20.861Z,6.30
2023-02-06T00:54:54.061Z,6.30
2023-02-06T00:57:28.170Z,6.20
2023-02-06T01:00:01.822Z,6.20
2023-02-06T01:02:35.395Z,6.20
2023-02-06T01:05:10.811Z,6.10
2023-02-06T01:07:44.006Z,6.10
2023-02-06T01:10:17.635Z,6.10
2023-02-06T01:12:50.912Z,6.10
2023-02-06T01:15:24.219Z,6.10
2023-02-06T01:17:57.581Z,6.14
2023-02-06T01:20:31.072Z,6.20
2023-02-06T01:23:04.286Z,6.20
2023-02-06T01:25:38.139Z,6.30
2023-02-06T01:28:11.622Z,6.34
2023-02-06T01:30:45.307Z,6.40
2023-02-06T01:33:18.139Z,6.40
2023-02-06T01:35:58.219Z,6.40
2023-02-06T01:38:31.252Z,6.40
2023-02-06T01:41:04.703Z,6.40
2023-02-06T01:43:42.500Z,6.40
2023-02-06T01:46:15.751Z,6.30
2023-02-06T01:48:54.553Z,6.30
2023-02-06T01:51:32.244Z,6.30
2023-02-06T01:54:08.554Z,6.30
2023-02-06T01:56:51.015Z,6.26
2023-02-06T01:59:25.417Z,6.20
2023-02-06T02:01:59.016Z,6.20
2023-02-06T02:04:33.833Z,6.20
2023-02-06T02:07:17.665Z,6.20
2023-02-06T02:09:50.508Z,6.20
2023-02-06T02:12:23.100Z,6.16
2023-02-06T02:14:57.943Z,6.10
2023-02-06T02:17:44.273Z,6.10
2023-02-06T02:21:02.131Z,6.10
2023-02-06T02:23:46.065Z,6.10
2023-02-06T02:27:22.998Z,6.10
2023-02-06T02:30:39.703Z,6.10
2023-02-06T02:34:16.199Z,6.10
2023-02-06T02:37:00.393Z,6.02
2023-02-06T02:39:46.795Z,6.00
2023-02-06T02:42:35.251Z,6.00
2023-02-06T02:45:19.398Z,6.04
2023-02-06T02:48:00.790Z,6.10
2023-02-06T02:50:35.998Z,6.16
2023-02-06T02:53:09.950Z,6.20
2023-02-06T02:55:43.388Z,6.28
2023-02-06T02:58:20.683Z,6.30
2023-02-06T03:01:01.753Z,6.30
2023-02-06T03:03:36.752Z,6.30
2023-02-06T03:06:59.605Z,6.30
2023-02-06T03:09:55.115Z,6.30
2023-02-06T03:12:39.610Z,6.20
2023-02-06T03:15:28.162Z,6.20
2023-02-06T03:18:10.198Z,6.20
2023-02-06T03:20:47.729Z,6.10
2023-02-06T03:23:26.326Z,6.10
2023-02-06T03:26:05.470Z,6.10
2023-02-06T03:28:43.815Z,6.10
2023-02-06T03:31:26.330Z,6.02
2023-02-06T03:34:07.380Z,6.00
2023-02-06T03:36:40.978Z,6.00
2023-02-06T03:39:14.827Z,6.00
2023-02-06T03:41:50.214Z,5.90
2023-02-06T03:44:29.553Z,5.80
2023-02-06T03:47:05.211Z,5.70
2023-02-06T03:49:42.311Z,5.70
2023-02-06T03:52:20.858Z,5.70
2023-02-06T03:55:00.021Z,5.70
2023-02-06T03:57:36.136Z,5.72
2023-02-06T04:00:14.633Z,5.80
2023-02-06T04:02:53.082Z,5.80
2023-02-06T04:05:27.600Z,5.80
2023-02-06T04:08:01.361Z,5.80
2023-02-06T04:10:35.275Z,5.80
2023-02-06T04:13:08.749Z,5.80
2023-02-06T04:15:42.595Z,5.80
2023-02-06T04:18:16.630Z,5.80
2023-02-06T04:20:51.867Z,5.80
2023-02-06T04:23:25.444Z,5.80
2023-02-06T04:25:58.812Z,5.80
2023-02-06T04:28:32.765Z,5.80
2023-02-06T04:31:07.039Z,5.80
2023-02-06T04:33:40.721Z,5.80
2023-02-06T04:36:14.877Z,5.80
2023-02-06T04:38:48.492Z,5.80
2023-02-06T04:41:21.867Z,5.80
2023-02-06T04:43:55.138Z,5.80
2023-02-06T04:46:28.473Z,5.80
2023-02-06T04:49:01.616Z,5.80
2023-02-06T04:51:35.027Z,5.80
2023-02-06T04:54:10.732Z,5.80
2023-02-06T04:56:44.622Z,5.80
2023-02-06T04:59:17.834Z,5.80
2023-02-06T05:01:51.264Z,5.80
2023-02-06T05:04:23.954Z,5.80
2023-02-06T05:06:56.865Z,5.80
2023-02-06T05:09:31.627Z,5.80
2023-02-06T05:12:06.105Z,5.80
2023-02-06T05:14:39.348Z,5.80
2023-02-06T05:17:12.453Z,5.78
2023-02-06T05:19:46.568Z,5.70
2023-02-06T05:22:19.391Z,5.70
2023-02-06T05:24:53.224Z,5.70
2023-02-06T05:27:27.106Z,5.60
2023-02-06T05:30:00.876Z,5.60
2023-02-06T05:32:33.659Z,5.60
2023-02-06T05:35:08.846Z,5.50
2023-02-06T05:37:42.540Z,5.50
2023-02-06T05:40:19.356Z,5.50
2023-02-06T05:42:53.285Z,5.50
2023-02-06T05:45:26.716Z,5.48
2023-02-06T05:48:00.250Z,5.50
2023-02-06T05:50:33.241Z,5.50
2023-02-06T05:53:06.310Z,5.60
2023-02-06T05:55:39.684Z,5.60
2023-02-06T05:58:13.003Z,5.60
2023-02-06T06:00:46.693Z,5.60
2023-02-06T06:03:20.482Z,5.60
2023-02-06T06:05:53.896Z,5.60
2023-02-06T06:08:27.333Z,5.60
2023-02-06T06:11:02.019Z,5.60
2023-02-06T06:13:35.100Z,5.60
2023-02-06T06:16:10.030Z,5.60
2023-02-06T06:18:43.720Z,5.52
2023-02-06T06:21:17.513Z,5.50
2023-02-06T06:23:49.748Z,5.50
2023-02-06T06:26:22.506Z,5.40
2023-02-06T06:28:55.429Z,5.40
2023-02-06T06:31:28.000Z,5.38
2023-02-06T06:34:01.932Z,5.30
2023-02-06T06:36:35.342Z,5.30
2023-02-06T06:39:08.922Z,5.30
2023-02-06T06:41:41.818Z,5.30
2023-02-06T06:44:15.179Z,5.30
2023-02-06T06:46:48.700Z,5.34
2023-02-06T06:49:22.793Z,5.40
2023-02-06T06:51:56.116Z,5.40
2023-02-06T06:54:29.570Z,5.40
2023-02-06T06:57:02.438Z,5.50
2023-02-06T06:59:36.241Z,5.50
2023-02-06T07:02:09.778Z,5.60
2023-02-06T07:04:43.461Z,5.60
2023-02-06T07:07:17.019Z,5.60
2023-02-06T07:09:50.738Z,5.60
2023-02-06T07:12:23.894Z,5.60
2023-02-06T07:14:57.788Z,5.60
2023-02-06T07:17:31.264Z,5.60
2023-02-06T07:20:04.298Z,5.60
2023-02-06T07:22:37.831Z,5.60
2023-02-06T07:25:13.146Z,5.60
2023-02-06T07:27:46.216Z,5.60
2023-02-06T07:30:22.041Z,5.70
2023-02-06T07:32:54.802Z,5.64
2023-02-06T07:35:27.967Z,5.70
2023-02-06T07:38:01.287Z,5.68
2023-02-06T07:40:44.735Z,5.70
2023-02-06T07:43:18.793Z,5.70
2023-02-06T07:45:51.450Z,5.78
2023-02-06T07:48:24.537Z,5.80
2023-02-06T07:50:57.896Z,5.80
2023-02-06T07:53:31.753Z,5.80
2023-02-06T07:56:09.917Z,5.90
2023-02-06T07:58:42.981Z,5.90
2023-02-06T08:01:16.590Z,5.90
2023-02-06T08:03:50.045Z,5.90
2023-02-06T08:06:25.955Z,5.92
2023-02-06T08:09:00.722Z,6.00
2023-02-06T08:11:33.784Z,6.00
2023-02-06T08:14:07.460Z,6.00
2023-02-06T08:16:40.693Z,6.00
2023-02-06T08:19:13.721Z,6.00
2023-02-06T08:21:46.653Z,6.00
2023-02-06T08:24:19.790Z,6.02
2023-02-06T08:26:52.968Z,6.00
2023-02-06T08:29:27.281Z,6.00
2023-02-06T08:32:01.455Z,6.08
2023-02-06T08:34:35.817Z,6.10
2023-02-06T08:37:08.734Z,6.10
2023-02-06T08:39:41.680Z,6.10
2023-02-06T08:42:14.520Z,6.10
2023-02-06T08:44:48.204Z,6.16
2023-02-06T08:47:26.396Z,6.20
2023-02-06T08:49:58.737Z,6.20
2023-02-06T08:52:32.569Z,6.20
2023-02-06T08:55:06.394Z,6.20
2023-02-06T08:57:39.930Z,6.20
2023-02-06T09:00:24.232Z,6.10
2023-02-06T09:02:59.391Z,6.10
2023-02-06T09:05:34.597Z,6.10
2023-02-06T09:08:08.360Z,6.10
2023-02-06T09:10:42.027Z,6.10
2023-02-06T09:13:15.047Z,6.10
2023-02-06T09:15:55.529Z,6.00
2023-02-06T09:18:29.344Z,6.00
2023-02-06T09:21:13.267Z,6.00
2023-02-06T09:23:48.476Z,6.00
2023-02-06T09:26:23.606Z,6.00
2023-02-06T09:28:59.519Z,6.00
2023-02-06T09:31:33.760Z,6.06
2023-02-06T09:34:06.479Z,6.10
2023-02-06T09:36:39.647Z,6.10
2023-02-06T09:39:13.005Z,6.10
2023-02-06T09:41:51.937Z,6.08
2023-02-06T09:44:34.723Z,6.00
2023-02-06T09:47:28.245Z,5.90
2023-02-06T09:50:07.353Z,5.90
2023-02-06T09:53:04.409Z,5.90
2023-02-06T09:55:44.064Z,5.90
2023-02-06T09:58:42.875Z,5.90
2023-02-06T10:01:25.993Z,6.00
2023-02-06T10:04:35.683Z,6.00
2023-02-06T10:07:25.130Z,6.02
2023-02-06T10:10:04.039Z,6.10
2023-02-06T10:12:43.802Z,6.10
2023-02-06T10:15:24.877Z,6.18
2023-02-06T10:18:06.879Z,6.20
2023-02-06T10:20:48.220Z,6.20
2023-02-06T10:23:34.399Z,6.28
2023-02-06T10:26:17.019Z,6.30
2023-02-06T10:28:55.480Z,6.30
2023-02-06T10:32:01.620Z,6.20
2023-02-06T10:35:01.681Z,6.20
2023-02-06T10:38:05.367Z,6.20
2023-02-06T10:40:52.652Z,6.20
2023-02-06T10:43:41.146Z,6.20
2023-02-06T10:46:42.351Z,6.30
2023-02-06T10:49:29.989Z,6.30
2023-02-06T10:52:15.800Z,6.30
2023-02-06T10:54:56.296Z,6.30
2023-02-06T10:57:31.217Z,6.30
2023-02-06T11:00:14.464Z,6.30
2023-02-06T11:03:05.388Z,6.30
2023-02-06T11:05:41.190Z,6.30
2023-02-06T11:08:26.532Z,6.30
2023-02-06T11:11:18.939Z,6.30
2023-02-06T11:13:58.046Z,6.30
2023-02-06T11:16:34.933Z,6.30
2023-02-06T11:19:21.135Z,6.30
2023-02-06T11:22:08.675Z,6.30
2023-02-06T11:24:59.092Z,6.30
2023-02-06T11:27:33.098Z,6.36
2023-02-06T11:30:25.088Z,6.36
2023-02-06T11:33:05.884Z,6.38
2023-02-06T11:35:49.827Z,6.40
2023-02-06T11:38:27.211Z,6.40
2023-02-06T11:41:04.097Z,6.40
2023-02-06T11:43:50.414Z,6.50
2023-02-06T11:46:28.205Z,6.50
2023-02-06T11:49:26.945Z,6.50
2023-02-06T11:52:03.248Z,6.50
2023-02-06T11:54:36.911Z,6.40
2023-02-06T11:57:23.504Z,6.40
2023-02-06T11:59:59.237Z,6.40
2023-02-06T12:02:38.400Z,6.32
2023-02-06T12:05:18.893Z,6.30
2023-02-06T12:08:01.843Z,6.30
2023-02-06T12:10:42.057Z,6.30
2023-02-06T12:13:25.977Z,6.30
2023-02-06T12:16:02.481Z,6.38
2023-02-06T12:18:43.423Z,6.32
2023-02-06T12:21:23.730Z,6.30
2023-02-06T12:24:03.276Z,6.30
2023-02-06T12:26:39.498Z,6.30
2023-02-06T12:29:22.525Z,6.30
2023-02-06T12:32:05.121Z,6.30
2023-02-06T12:34:53.933Z,6.20
2023-02-06T12:37:39.399Z,6.20
2023-02-06T12:40:28.069Z,6.20
2023-02-06T12:43:08.179Z,6.20
2023-02-06T12:45:51.949Z,6.20
2023-02-06T12:48:31.355Z,6.20
2023-02-06T12:51:20.346Z,6.10
2023-02-06T12:54:02.361Z,6.00
2023-02-06T12:56:45.913Z,6.00
2023-02-06T12:59:58.984Z,5.90
2023-02-06T13:03:07.125Z,5.90
2023-02-06T13:05:45.300Z,5.90
2023-02-06T13:08:22.742Z,6.00
2023-02-06T13:11:08.567Z,6.00
2023-02-06T13:13:44.785Z,6.00
2023-02-06T13:16:17.010Z,6.10
2023-02-06T13:19:02.358Z,6.10
2023-02-06T13:21:36.473Z,6.04
2023-02-06T13:24:22.270Z,6.10
2023-02-06T13:27:15.956Z,6.16
2023-02-06T13:29:50.970Z,6.20
2023-02-06T13:32:51.474Z,6.10
2023-02-06T13:35:32.137Z,6.10
2023-02-06T13:38:41.720Z,6.20
2023-02-06T13:41:37.039Z,6.26
2023-02-06T13:44:19.638Z,6.30
2023-02-06T13:47:38.673Z,6.30
2023-02-06T13:50:49.442Z,6.22
2023-02-06T13:53:56.723Z,6.38
2023-02-06T13:56:53.791Z,6.40
2023-02-06T13:59:33.881Z,6.50
2023-02-06T14:02:20.390Z,6.60
2023-02-06T14:04:53.043Z,6.54
2023-02-06T14:07:55.529Z,6.50
2023-02-06T14:11:25.802Z,6.50
2023-02-06T14:14:27.812Z,6.50
2023-02-06T14:17:15.334Z,6.50
2023-02-06T14:20:01.807Z,6.56
2023-02-06T14:22:44.227Z,6.60
2023-02-06T14:25:56.683Z,6.70
2023-02-06T14:28:42.611Z,6.80
2023-02-06T14:31:32.857Z,6.80
2023-02-06T14:34:38.286Z,6.70
2023-02-06T14:37:42.728Z,6.60
2023-02-06T14:40:24.740Z,6.50
2023-02-06T14:43:00.011Z,6.44
2023-02-06T14:45:42.097Z,6.40
2023-02-06T14:48:27.268Z,6.30
2023-02-06T14:51:02.240Z,6.20
2023-02-06T14:53:39.227Z,6.20
2023-02-06T14:56:22.424Z,6.30
2023-02-06T14:58:56.049Z,6.30
2023-02-06T15:01:32.748Z,6.20
2023-02-06T15:04:18.891Z,6.20
2023-02-06T15:06:57.932Z,6.14
2023-02-06T15:09:36.316Z,6.08
2023-02-06T15:12:28.687Z,6.00
2023-02-06T15:15:04.911Z,5.90
2023-02-06T15:17:38.404Z,5.90
2023-02-06T15:20:31.890Z,5.80
2023-02-06T15:23:18.143Z,5.80
2023-02-06T15:26:06.684Z,5.70
2023-02-06T15:28:41.524Z,5.70
2023-02-06T15:31:22.229Z,5.70
2023-02-06T15:33:58.254Z,5.60
2023-02-06T15:36:37.669Z,5.60
2023-02-06T15:39:15.176Z,5.60
2023-02-06T15:41:51.297Z,5.60
2023-02-06T15:44:34.940Z,5.50
2023-02-06T15:47:14.272Z,5.50
2023-02-06T15:49:50.227Z,5.40
2023-02-06T15:52:39.491Z,5.40
2023-02-06T15:55:29.733Z,5.46
2023-02-06T15:58:05.511Z,5.46
2023-02-06T16:00:40.268Z,5.48
2023-02-06T16:03:21.885Z,5.44
2023-02-06T16:05:54.007Z,5.44
2023-02-06T16:08:34.432Z,5.42
2023-02-06T16:11:31.303Z,5.44
2023-02-06T16:14:05.202Z,5.40
2023-02-06T16:16:38.796Z,5.40
2023-02-06T16:19:48.107Z,5.40
2023-02-06T16:22:28.798Z,5.30
2023-02-06T16:25:25.383Z,5.22
2023-02-06T16:27:58.731Z,5.20
2023-02-06T16:30:36.024Z,5.20
2023-02-06T16:33:27.267Z,5.24
2023-02-06T16:36:00.282Z,5.20
2023-02-06T16:38:34.122Z,5.20
2023-02-06T16:41:25.352Z,5.20
2023-02-06T16:43:59.857Z,5.20
2023-02-06T16:46:33.040Z,5.20
2023-02-06T16:49:11.582Z,5.20
2023-02-06T16:51:46.730Z,5.20
2023-02-06T16:54:27.340Z,5.20
2023-02-06T16:57:08.912Z,5.20
2023-02-06T16:59:42.363Z,5.20
2023-02-06T17:02:18.875Z,5.20
2023-02-06T17:04:52.706Z,5.20
2023-02-06T17:07:28.941Z,5.30
2023-02-06T17:10:03.340Z,5.30
2023-02-06T17:12:37.621Z,5.30
2023-02-06T17:15:16.174Z,5.30
2023-02-06T17:17:49.788Z,5.30
2023-02-06T17:20:33.850Z,5.24
2023-02-06T17:23:07.228Z,5.20
2023-02-06T17:25:40.602Z,5.20
2023-02-06T17:28:18.615Z,5.12
2023-02-06T17:30:53.605Z,5.10
2023-02-06T17:33:26.443Z,5.10
2023-02-06T17:36:00.271Z,5.10
2023-02-06T17:38:33.725Z,5.00
2023-02-06T17:41:09.562Z,5.00
2023-02-06T17:43:43.308Z,4.90
2023-02-06T17:46:18.363Z,4.90
2023-02-06T17:48:52.152Z,4.90
2023-02-06T17:51:26.133Z,4.90
2023-02-06T17:53:58.784Z,4.82
2023-02-06T17:56:32.494Z,4.80
2023-02-06T17:59:05.982Z,4.70
2023-02-06T18:01:40.049Z,4.60
2023-02-06T18:04:19.054Z,4.60
2023-02-06T18:06:52.201Z,4.50
2023-02-06T18:09:25.933Z,4.48
2023-02-06T18:11:59.622Z,4.40
2023-02-06T18:14:31.934Z,4.40
2023-02-06T18:17:06.126Z,4.46
2023-02-06T18:19:41.816Z,4.40
2023-02-06T18:22:19.480Z,4.40
2023-02-06T18:24:53.566Z,4.48
2023-02-06T18:27:27.357Z,4.40
2023-02-06T18:30:03.172Z,4.40
2023-02-06T18:32:37.476Z,4.40
2023-02-06T18:35:14.291Z,4.40
2023-02-06T18:37:49.532Z,4.40
2023-02-06T18:40:24.655Z,4.40
2023-02-06T18:42:57.868Z,4.40
2023-02-06T18:45:34.311Z,4.40
2023-02-06T18:48:10.108Z,4.30
2023-02-06T18:50:45.504Z,4.30
2023-02-06T18:53:18.472Z,4.30
2023-02-06T18:56:01.324Z,4.30
2023-02-06T18:58:35.227Z,4.30
2023-02-06T19:01:17.003Z,4.30
2023-02-06T19:03:50.878Z,4.30
2023-02-06T19:06:29.453Z,4.28
2023-02-06T19:09:02.968Z,4.20
2023-02-06T19:11:36.152Z,4.20
2023-02-06T19:14:10.258Z,4.20
2023-02-06T19:16:44.391Z,4.10
2023-02-06T19:19:17.706Z,4.12
2023-02-06T19:21:50.646Z,4.10
2023-02-06T19:24:26.339Z,4.10
2023-02-06T19:26:59.393Z,4.08
2023-02-06T19:29:36.166Z,4.00
2023-02-06T19:32:12.514Z,4.00
2023-02-06T19:34:46.808Z,4.00
2023-02-06T19:37:20.526Z,4.00
2023-02-06T19:39:54.610Z,4.00
2023-02-06T19:42:27.472Z,4.04
2023-02-06T19:45:00.641Z,4.08
2023-02-06T19:47:34.670Z,4.10
2023-02-06T19:50:09.025Z,4.10
2023-02-06T19:52:42.676Z,4.10
2023-02-06T19:55:16.796Z,4.10
2023-02-06T19:57:50.283Z,4.10
2023-02-06T20:00:26.292Z,4.06
2023-02-06T20:02:59.662Z,4.00
2023-02-06T20:05:34.191Z,4.00
2023-02-06T20:08:08.225Z,4.00
2023-02-06T20:10:43.946Z,4.00
2023-02-06T20:13:16.681Z,4.00
2023-02-06T20:15:50.296Z,4.02
2023-02-06T20:21:08.492Z,4.00
2023-02-06T20:23:42.555Z,4.00
2023-02-06T20:26:20.273Z,3.96
2023-02-06T20:28:53.152Z,3.90
2023-02-06T20:31:27.808Z,3.90
2023-02-06T20:34:00.694Z,3.90
2023-02-06T20:36:34.177Z,3.80
2023-02-06T20:39:08.539Z,3.80
2023-02-06T20:41:42.964Z,3.80
2023-02-06T20:44:16.750Z,3.80
2023-02-06T20:46:51.081Z,3.80
2023-02-06T20:49:31.180Z,3.88
2023-02-06T20:52:06.094Z,3.90
2023-02-06T20:54:40.805Z,3.90
2023-02-06T20:57:15.193Z,3.90
2023-02-06T20:59:49.774Z,3.90
2023-02-06T21:02:23.269Z,3.88
2023-02-06T21:04:55.882Z,3.80
2023-02-06T21:07:31.196Z,3.80
2023-02-06T21:10:06.022Z,3.80
2023-02-06T21:12:39.900Z,3.80
2023-02-06T21:15:16.485Z,3.80
2023-02-06T21:17:49.836Z,3.78
2023-02-06T21:20:25.195Z,3.76
2023-02-06T21:22:59.203Z,3.70
2023-02-06T21:25:32.504Z,3.70
2023-02-06T21:28:06.522Z,3.70
2023-02-06T21:30:40.924Z,3.70
2023-02-06T21:33:14.383Z,3.70
2023-02-06T21:35:54.020Z,3.68
2023-02-06T21:38:27.240Z,3.60
2023-02-06T21:41:06.487Z,3.60
2023-02-06T21:43:40.792Z,3.60
2023-02-06T21:46:14.852Z,3.60
2023-02-06T21:48:51.989Z,3.60
2023-02-06T21:51:26.276Z,3.60
2023-02-06T21:54:00.059Z,3.60
2023-02-06T21:56:34.760Z,3.60
2023-02-06T21:59:09.021Z,3.62
2023-02-06T22:01:43.191Z,3.70
2023-02-06T22:04:15.964Z,3.68
2023-02-06T22:06:49.514Z,3.70
2023-02-06T22:09:22.911Z,3.70
2023-02-06T22:11:56.424Z,3.60
2023-02-06T22:14:30.094Z,3.60
2023-02-06T22:17:03.954Z,3.60
2023-02-06T22:19:38.122Z,3.60
2023-02-06T22:22:11.901Z,3.60
2023-02-06T22:24:45.734Z,3.60
2023-02-06T22:27:19.352Z,3.60
2023-02-06T22:29:52.868Z,3.60
2023-02-06T22:32:26.092Z,3.60
2023-02-06T22:35:03.843Z,3.60
2023-02-06T22:37:37.939Z,3.60
2023-02-06T22:40:16.658Z,3.60
2023-02-06T22:42:50.756Z,3.60
2023-02-06T22:45:25.057Z,3.60
2023-02-06T22:47:58.207Z,3.60
2023-02-06T22:50:32.544Z,3.60
2023-02-06T22:53:24.076Z,3.60
2023-02-06T22:56:14.478Z,3.60
2023-02-06T22:58:49.482Z,3.60
2023-02-06T23:01:25.212Z,3.60
2023-02-06T23:03:58.383Z,3.60
2023-02-06T23:06:32.465Z,3.52
2023-02-06T23:09:08.761Z,3.56
2023-02-06T23:11:43.765Z,3.58
2023-02-06T23:14:19.527Z,3.60
2023-02-06T23:16:53.782Z,3.60
2023-02-06T23:19:28.033Z,3.60
2023-02-06T23:22:02.126Z,3.60
2023-02-06T23:24:35.855Z,3.60
2023-02-06T23:27:10.216Z,3.60
2023-02-06T23:29:43.538Z,3.60
2023-02-06T23:32:18.129Z,3.60
2023-02-06T23:34:53.018Z,3.60
2023-02-06T23:37:26.447Z,3.60
2023-02-06T23:40:00.296Z,3.60
2023-02-06T23:42:33.798Z,3.60
2023-02-06T23:45:11.492Z,3.60
2023-02-06T23:47:45.380Z,3.60
2023-02-06T23:50:19.727Z,3.60
2023-02-06T23:52:53.896Z,3.60
2023-02-06T23:55:27.871Z,3.60
2023-02-06T23:58:00.117Z,3.60
